Time;durP1;ratioP1;P1;durP2;ratioP2;P2;SDS_P1;SDS_P2;PMS_P1;PMS_P2;Temp;Humidity;BMP_temperature;BMP_pressure;BME280_temperature;BME280_humidity;BME280_pressure;Samples;Min_cycle;Max_cycle;Signal;HPM_P1;HPM_P2
2021/12/16 00:02:37;;;;;;;;;;;;;;;;;;5029744;28;19919;-75
2021/12/16 00:07:44;;;;;;;;;;;;;;;;;;5029850;28;19913;-74
2021/12/16 00:32:04;;;;;;;;;;;;;;;;;;5024701;28;19921;-74
2021/12/16 00:34:30;;;;;;;;;;;;;;;;;;5031156;28;20383;-75
2021/12/16 00:36:56;;;;;;;;;;;;;;;;;;5031653;28;19917;-74
2021/12/16 00:39:21;;;;;;;;;;;;;;;;;;5028752;28;20322;-75
2021/12/16 00:41:51;;;;;;;;;;;;;;;;;;5024231;28;20334;-74
2021/12/16 00:54:43;;;;;;;;;;;;;;;;;;5028341;28;20396;-75
2021/12/16 00:57:13;;;;;;;;;;;;;;;;;;5031073;28;20401;-75
2021/12/16 00:59:41;;;;;;;;;;;;;;;;;;5025710;28;19975;-74
2021/12/16 01:34:58;;;;;;;;;;;;;;;;;;5033969;28;20323;-74
2021/12/16 01:51:04;;;;;;;;;;;;;;;;;;5025913;28;19939;-74
2021/12/16 01:56:37;;;;;;;;;;;;;;;;;;5021050;28;20514;-73
2021/12/16 01:59:05;;;;;;;;;;;;;;;;;;5032427;28;19920;-74
2021/12/16 02:01:33;;;;;;;;;;;;;;;;;;5030877;28;19932;-75
2021/12/16 02:04:01;;;;;;;;;;;;;;;;;;5030404;28;19913;-74
2021/12/16 02:09:02;;;;;;;;;;;;;;;;;;5026446;28;19917;-75
2021/12/16 02:11:50;;;;;;;;;;;;;;;;;;5030968;28;19939;-74
2021/12/16 02:38:46;;;;;;;;;;;;;;;;;;5027952;28;19913;-74
2021/12/16 02:41:12;;;;;;;;;;;;;;;;;;5029083;28;20297;-74
2021/12/16 02:49:08;;;;;;;;;;;;;;;;;;5030390;28;19939;-74
2021/12/16 02:51:34;;;;;;;;;;;;;;;;;;5030250;28;20008;-74
2021/12/16 02:54:00;;;;;;;;;;;;;;;;;;5032421;28;19913;-74
2021/12/16 02:56:26;;;;;;;;;;;;;;;;;;5033125;28;19917;-74
2021/12/16 02:58:51;;;;;;;;;;;;;;;;;;5031762;28;19972;-74
2021/12/16 03:01:18;;;;;;;;;;;;;;;;;;5032749;28;20292;-75
2021/12/16 03:03:44;;;;;;;;;;;;;;;;;;5031748;28;20312;-74
2021/12/16 03:06:11;;;;;;;;;;;;;;;;;;5035120;28;20355;-74
2021/12/16 03:08:37;;;;;;;;;;;;;;;;;;5032006;28;19913;-74
2021/12/16 03:19:31;;;;;;;;;;;;;;;;;;5021258;28;20533;-73
2021/12/16 03:22:00;;;;;;;;;;;;;;;;;;5034549;28;19916;-74
2021/12/16 03:37:24;;;;;;;;;;;;;;;;;;5038805;28;20296;-74
2021/12/16 03:39:50;;;;;;;;;;;;;;;;;;5040307;28;19913;-74
2021/12/16 03:42:16;;;;;;;;;;;;;;;;;;5032976;28;20022;-74
2021/12/16 03:46:25;;;;;;;;;;;;;;;;;;5036309;28;19945;-74
2021/12/16 03:47:34;;;;;;;;;;;;;;;;;;5031783;28;20579;-74
2021/12/16 03:50:00;;;;;;;;;;;;;;;;;;5035060;28;19921;-75
2021/12/16 03:52:26;;;;;;;;;;;;;;;;;;5033083;28;20393;-74
2021/12/16 03:54:52;;;;;;;;;;;;;;;;;;5033114;28;19952;-74
2021/12/16 03:57:18;;;;;;;;;;;;;;;;;;5034485;28;19949;-74
2021/12/16 03:59:44;;;;;;;;;;;;;;;;;;5030755;28;19917;-75
2021/12/16 04:02:10;;;;;;;;;;;;;;;;;;5037523;28;19940;-74
2021/12/16 04:04:36;;;;;;;;;;;;;;;;;;5031894;28;19920;-74
2021/12/16 04:07:02;;;;;;;;;;;;;;;;;;5031191;28;19960;-74
2021/12/16 04:09:30;;;;;;;;;;;;;;;;;;5037127;28;19952;-75
2021/12/16 04:12:07;;;;;;;;;;;;;;;;;;5032474;28;20282;-74
2021/12/16 04:14:33;;;;;;;;;;;;;;;;;;5031745;28;20145;-75
2021/12/16 04:17:02;;;;;;;;;;;;;;;;;;5035177;28;19917;-74
2021/12/16 04:19:28;;;;;;;;;;;;;;;;;;5029243;28;19924;-74
2021/12/16 04:21:54;;;;;;;;;;;;;;;;;;5031873;28;19917;-74
2021/12/16 04:24:20;;;;;;;;;;;;;;;;;;5032180;28;20003;-74
2021/12/16 04:26:46;;;;;;;;;;;;;;;;;;5029286;28;19971;-74
2021/12/16 04:29:12;;;;;;;;;;;;;;;;;;5028169;28;20307;-75
2021/12/16 04:31:38;;;;;;;;;;;;;;;;;;5032016;28;19953;-74
2021/12/16 04:34:04;;;;;;;;;;;;;;;;;;5037481;28;19948;-75
2021/12/16 04:36:30;;;;;;;;;;;;;;;;;;5032311;28;19956;-74
2021/12/16 04:38:56;;;;;;;;;;;;;;;;;;5030406;28;19952;-74
2021/12/16 04:41:22;;;;;;;;;;;;;;;;;;5033018;28;19964;-75
2021/12/16 04:43:48;;;;;;;;;;;;;;;;;;5033783;28;19913;-74
2021/12/16 04:46:14;;;;;;;;;;;;;;;;;;5028434;28;19948;-74
2021/12/16 04:48:40;;;;;;;;;;;;;;;;;;5031966;28;19912;-74
2021/12/16 04:51:06;;;;;;;;;;;;;;;;;;5034111;28;20012;-73
2021/12/16 04:53:32;;;;;;;;;;;;;;;;;;5035480;28;19991;-74
2021/12/16 04:55:58;;;;;;;;;;;;;;;;;;5030135;28;20439;-74
2021/12/16 04:58:24;;;;;;;;;;;;;;;;;;5031155;28;20068;-74
2021/12/16 05:00:50;;;;;;;;;;;;;;;;;;5029669;28;20302;-75
2021/12/16 05:03:15;;;;;;;;;;;;;;;;;;5029135;28;20669;-74
2021/12/16 05:05:41;;;;;;;;;;;;;;;;;;5038020;28;20380;-74
2021/12/16 05:08:07;;;;;;;;;;;;;;;;;;5029481;28;19956;-73
2021/12/16 05:10:33;;;;;;;;;;;;;;;;;;5029581;28;19994;-74
2021/12/16 05:13:00;;;;;;;;;;;;;;;;;;5021263;28;20352;-75
2021/12/16 05:15:31;;;;;;;;;;;;;;;;;;5038952;28;19972;-75
2021/12/16 05:17:58;;;;;;;;;;;;;;;;;;5029588;28;19925;-75
2021/12/16 05:20:25;;;;;;;;;;;;;;;;;;5031277;28;19921;-74
2021/12/16 05:28:07;;;;;;;;;;;;;;;;;;5028941;28;19917;-74
2021/12/16 05:30:33;;;;;;;;;;;;;;;;;;5031083;28;20393;-74
2021/12/16 05:32:59;;;;;;;;;;;;;;;;;;5039296;28;20297;-74
2021/12/16 05:35:25;;;;;;;;;;;;;;;;;;5029068;28;20332;-74
2021/12/16 05:37:51;;;;;;;;;;;;;;;;;;5028940;28;19925;-74
2021/12/16 05:40:17;;;;;;;;;;;;;;;;;;5036373;28;19940;-74
2021/12/16 05:42:43;;;;;;;;;;;;;;;;;;5030928;28;19936;-74
2021/12/16 05:45:09;;;;;;;;;;;;;;;;;;5032768;28;20373;-74
2021/12/16 05:47:35;;;;;;;;;;;;;;;;;;5029755;28;19960;-74
2021/12/16 05:50:01;;;;;;;;;;;;;;;;;;5032477;28;19917;-74
2021/12/16 05:52:27;;;;;;;;;;;;;;;;;;5036538;28;20020;-74
2021/12/16 05:54:53;;;;;;;;;;;;;;;;;;5029537;28;19964;-74
2021/12/16 05:57:18;;;;;;;;;;;;;;;;;;5029751;28;19952;-74
2021/12/16 05:59:44;;;;;;;;;;;;;;;;;;5032170;28;19948;-74
2021/12/16 06:02:10;;;;;;;;;;;;;;;;;;5027658;28;19975;-74
2021/12/16 06:04:36;;;;;;;;;;;;;;;;;;5029307;28;19968;-74
2021/12/16 06:07:02;;;;;;;;;;;;;;;;;;5029191;28;19952;-73
2021/12/16 06:09:28;;;;;;;;;;;;;;;;;;5026525;28;19948;-73
2021/12/16 06:11:54;;;;;;;;;;;;;;;;;;5029695;28;19949;-74
2021/12/16 06:27:22;;;;;;;;;;;;;;;;;;5012844;28;19936;-73
2021/12/16 06:29:48;;;;;;;;;;;;;;;;;;5008163;28;19914;-73
2021/12/16 06:32:14;;;;;;;;;;;;;;;;;;5014766;28;19964;-73
2021/12/16 06:34:40;;;;;;;;;;;;;;;;;;5012282;28;19969;-73
2021/12/16 06:37:06;;;;;;;;;;;;;;;;;;5011721;28;20459;-74
2021/12/16 06:39:32;;;;;;;;;;;;;;;;;;5008679;28;19953;-74
2021/12/16 06:41:58;;;;;;;;;;;;;;;;;;5011002;28;19956;-74
2021/12/16 06:44:32;;;;;;;;;;;;;;;;;;5012184;28;19913;-74
2021/12/16 06:47:04;;;;;;;;;;;;;;;;;;5016926;28;19924;-74
2021/12/16 06:49:31;;;;;;;;;;;;;;;;;;5017823;28;19918;-74
2021/12/16 06:52:02;;;;;;;;;;;;;;;;;;5011852;28;19914;-73
2021/12/16 06:54:41;;;;;;;;;;;;;;;;;;5012063;28;19918;-73
2021/12/16 06:57:37;;;;;;;;;;;;;;;;;;5016980;28;19928;-73
2021/12/16 07:00:10;;;;;;;;;;;;;;;;;;5013373;28;19921;-73
2021/12/16 07:05:40;;;;;;;;;;;;;;;;;;5023013;28;20007;-74
2021/12/16 07:08:06;;;;;;;;;;;;;;;;;;5006616;28;20009;-74
2021/12/16 07:10:32;;;;;;;;;;;;;;;;;;5007674;28;19977;-74
2021/12/16 07:12:58;;;;;;;;;;;;;;;;;;5011490;28;19914;-74
2021/12/16 07:15:24;;;;;;;;;;;;;;;;;;5011064;28;19943;-73
2021/12/16 07:17:50;;;;;;;;;;;;;;;;;;5010433;28;19914;-73
2021/12/16 07:20:16;;;;;;;;;;;;;;;;;;5013067;28;19914;-73
2021/12/16 07:22:42;;;;;;;;;;;;;;;;;;5010526;28;20383;-73
2021/12/16 07:25:08;;;;;;;;;;;;;;;;;;5013255;28;19914;-73
2021/12/16 07:27:35;;;;;;;;;;;;;;;;;;5007950;28;20252;-73
2021/12/16 07:30:01;;;;;;;;;;;;;;;;;;5018422;28;19917;-73
2021/12/16 07:32:27;;;;;;;;;;;;;;;;;;5011964;28;20434;-73
2021/12/16 07:34:53;;;;;;;;;;;;;;;;;;5010387;28;20396;-73
2021/12/16 07:37:19;;;;;;;;;;;;;;;;;;5016138;28;20320;-73
2021/12/16 07:39:47;;;;;;;;;;;;;;;;;;5010483;28;20353;-74
2021/12/16 07:42:14;;;;;;;;;;;;;;;;;;5010904;28;20004;-73
2021/12/16 07:44:40;;;;;;;;;;;;;;;;;;5012507;28;19914;-74
2021/12/16 07:47:06;;;;;;;;;;;;;;;;;;5012244;28;20375;-73
2021/12/16 07:49:32;;;;;;;;;;;;;;;;;;5008742;28;20014;-74
2021/12/16 07:51:58;;;;;;;;;;;;;;;;;;5014569;28;19948;-74
2021/12/16 07:54:24;;;;;;;;;;;;;;;;;;5019279;28;19961;-74
2021/12/16 07:56:50;;;;;;;;;;;;;;;;;;5012179;28;20348;-74
2021/12/16 07:59:16;;;;;;;;;;;;;;;;;;5007406;28;20391;-74
2021/12/16 08:01:42;;;;;;;;;;;;;;;;;;5010949;28;20379;-74
2021/12/16 08:04:17;;;;;;;;;;;;;;;;;;5019229;28;19956;-74
2021/12/16 08:06:43;;;;;;;;;;;;;;;;;;5007530;28;19917;-74
2021/12/16 08:09:09;;;;;;;;;;;;;;;;;;5008303;28;19913;-74
2021/12/16 08:11:35;;;;;;;;;;;;;;;;;;5009563;28;19914;-74
2021/12/16 08:14:03;;;;;;;;;;;;;;;;;;5009866;28;20715;-74
2021/12/16 08:16:29;;;;;;;;;;;;;;;;;;5009545;28;19984;-74
2021/12/16 08:18:55;;;;;;;;;;;;;;;;;;5005377;28;20407;-74
2021/12/16 08:21:20;;;;;;;;;;;;;;;;;;5011428;28;19965;-74
2021/12/16 08:23:46;;;;;;;;;;;;;;;;;;5012019;28;19914;-74
2021/12/16 08:26:15;;;;;;;;;;;;;;;;;;5015017;28;20020;-74
2021/12/16 08:28:42;;;;;;;;;;;;;;;;;;5008022;28;19913;-74
2021/12/16 08:31:08;;;;;;;;;;;;;;;;;;5011585;28;19937;-73
2021/12/16 08:33:34;;;;;;;;;;;;;;;;;;5019899;28;20394;-74
2021/12/16 08:36:00;;;;;;;;;;;;;;;;;;5011734;28;20431;-74
2021/12/16 08:38:26;;;;;;;;;;;;;;;;;;5008484;28;19948;-74
2021/12/16 08:40:52;;;;;;;;;;;;;;;;;;5019249;28;20007;-73
2021/12/16 08:43:17;;;;;;;;;;;;;;;;;;5009282;28;20080;-74
2021/12/16 08:45:43;;;;;;;;;;;;;;;;;;5010498;28;20011;-74
2021/12/16 08:48:09;;;;;;;;;;;;;;;;;;5002870;28;19976;-73
2021/12/16 08:50:35;;;;;;;;;;;;;;;;;;5012302;28;19957;-73
2021/12/16 08:53:01;;;;;;;;;;;;;;;;;;5011918;28;19925;-73
2021/12/16 08:55:27;;;;;;;;;;;;;;;;;;5019333;28;19913;-73
2021/12/16 08:57:55;;;;;;;;;;;;;;;;;;5015431;28;19944;-73
2021/12/16 09:00:21;;;;;;;;;;;;;;;;;;5012327;28;19928;-73
2021/12/16 09:02:47;;;;;;;;;;;;;;;;;;5019129;28;20283;-73
2021/12/16 09:05:13;;;;;;;;;;;;;;;;;;5013142;28;19944;-74
2021/12/16 09:07:40;;;;;;;;;;;;;;;;;;5013842;28;19950;-73
2021/12/16 09:10:06;;;;;;;;;;;;;;;;;;5015763;28;19913;-74
2021/12/16 09:15:01;;;;;;;;;;;;;;;;;;5010879;28;19913;-73
2021/12/16 09:17:26;;;;;;;;;;;;;;;;;;5010905;28;19963;-73
2021/12/16 09:19:52;;;;;;;;;;;;;;;;;;5014205;28;19948;-73
2021/12/16 09:22:18;;;;;;;;;;;;;;;;;;5010039;28;19960;-73
2021/12/16 09:24:44;;;;;;;;;;;;;;;;;;5016021;28;20002;-73
2021/12/16 09:27:10;;;;;;;;;;;;;;;;;;5014741;28;20011;-73
2021/12/16 09:29:36;;;;;;;;;;;;;;;;;;5009434;28;19956;-73
2021/12/16 09:32:04;;;;;;;;;;;;;;;;;;5009747;28;19959;-74
2021/12/16 09:34:30;;;;;;;;;;;;;;;;;;5017395;28;19913;-73
2021/12/16 09:36:56;;;;;;;;;;;;;;;;;;5020067;28;20008;-74
2021/12/16 09:39:24;;;;;;;;;;;;;;;;;;5019046;28;20017;-73
2021/12/16 09:41:50;;;;;;;;;;;;;;;;;;5010415;28;19914;-73
2021/12/16 09:44:16;;;;;;;;;;;;;;;;;;5009866;28;20518;-73
2021/12/16 09:46:44;;;;;;;;;;;;;;;;;;5007726;28;20191;-74
2021/12/16 09:49:10;;;;;;;;;;;;;;;;;;5005798;28;19913;-73
2021/12/16 09:51:36;;;;;;;;;;;;;;;;;;5010008;28;19979;-73
2021/12/16 09:54:02;;;;;;;;;;;;;;;;;;5010961;28;19961;-74
2021/12/16 09:56:28;;;;;;;;;;;;;;;;;;5010214;28;19945;-74
2021/12/16 09:58:55;;;;;;;;;;;;;;;;;;5005042;28;19922;-73
2021/12/16 10:01:21;;;;;;;;;;;;;;;;;;5010515;28;19913;-74
2021/12/16 10:03:47;;;;;;;;;;;;;;;;;;5015422;28;19925;-73
2021/12/16 10:06:13;;;;;;;;;;;;;;;;;;5012704;28;19976;-73
2021/12/16 10:08:40;;;;;;;;;;;;;;;;;;5024371;28;20013;-74
2021/12/16 10:11:06;;;;;;;;;;;;;;;;;;5021593;28;19917;-74
2021/12/16 10:13:47;;;;;;;;;;;;;;;;;;5024535;28;20007;-73
2021/12/16 10:18:58;;;;;;;;;;;;;;;;;;5008627;28;19956;-74
2021/12/16 10:21:24;;;;;;;;;;;;;;;;;;5016804;28;20337;-74
2021/12/16 10:23:50;;;;;;;;;;;;;;;;;;5023804;28;20335;-74
2021/12/16 10:26:16;;;;;;;;;;;;;;;;;;5020767;28;20001;-74
2021/12/16 10:28:42;;;;;;;;;;;;;;;;;;5010509;28;19998;-74
2021/12/16 10:31:08;;;;;;;;;;;;;;;;;;5013075;28;20011;-74
2021/12/16 10:33:35;;;;;;;;;;;;;;;;;;5013529;28;19999;-74
2021/12/16 10:36:01;;;;;;;;;;;;;;;;;;5014789;28;19917;-74
2021/12/16 10:38:26;;;;;;;;;;;;;;;;;;5010303;28;20375;-74
2021/12/16 10:40:52;;;;;;;;;;;;;;;;;;5014903;28;20297;-74
2021/12/16 10:43:18;;;;;;;;;;;;;;;;;;5013253;28;20341;-75
2021/12/16 10:45:44;;;;;;;;;;;;;;;;;;5012571;28;20403;-74
2021/12/16 10:48:10;;;;;;;;;;;;;;;;;;5009447;28;19948;-74
2021/12/16 10:50:36;;;;;;;;;;;;;;;;;;5013991;28;19948;-74
2021/12/16 10:53:02;;;;;;;;;;;;;;;;;;5010502;28;19976;-74
2021/12/16 10:55:28;;;;;;;;;;;;;;;;;;5015232;28;19972;-74
2021/12/16 10:57:54;;;;;;;;;;;;;;;;;;5012347;28;20228;-74
2021/12/16 11:00:20;;;;;;;;;;;;;;;;;;5016707;28;19914;-74
2021/12/16 11:02:48;;;;;;;;;;;;;;;;;;5012785;28;19956;-74
2021/12/16 11:05:14;;;;;;;;;;;;;;;;;;5012701;28;19918;-74
2021/12/16 11:07:40;;;;;;;;;;;;;;;;;;5010358;28;20209;-74
2021/12/16 11:10:06;;;;;;;;;;;;;;;;;;5013478;28;20008;-74
2021/12/16 11:12:32;;;;;;;;;;;;;;;;;;5013010;28;19950;-74
2021/12/16 11:14:58;;;;;;;;;;;;;;;;;;5019025;28;20391;-74
2021/12/16 11:17:23;;;;;;;;;;;;;;;;;;5012051;28;19918;-73
2021/12/16 11:19:49;;;;;;;;;;;;;;;;;;5021648;28;19995;-74
2021/12/16 11:22:15;;;;;;;;;;;;;;;;;;5021982;28;19917;-74
2021/12/16 11:24:41;;;;;;;;;;;;;;;;;;5026160;28;19918;-74
2021/12/16 11:27:07;;;;;;;;;;;;;;;;;;5020954;28;19969;-74
2021/12/16 11:29:33;;;;;;;;;;;;;;;;;;5021578;28;19913;-74
2021/12/16 11:31:59;;;;;;;;;;;;;;;;;;5022393;28;19948;-74
2021/12/16 11:34:25;;;;;;;;;;;;;;;;;;5019809;28;19955;-74
2021/12/16 11:36:53;;;;;;;;;;;;;;;;;;5018235;28;19921;-74
2021/12/16 11:39:19;;;;;;;;;;;;;;;;;;5004763;28;19913;-74
2021/12/16 11:41:45;;;;;;;;;;;;;;;;;;5021113;28;19937;-75
2021/12/16 11:44:11;;;;;;;;;;;;;;;;;;5021325;28;19944;-74
2021/12/16 11:46:37;;;;;;;;;;;;;;;;;;5011877;28;19968;-74
2021/12/16 11:49:03;;;;;;;;;;;;;;;;;;5017902;28;19948;-74
2021/12/16 11:51:29;;;;;;;;;;;;;;;;;;5016127;28;19944;-74
2021/12/16 11:53:55;;;;;;;;;;;;;;;;;;5017435;28;20383;-74
2021/12/16 11:56:21;;;;;;;;;;;;;;;;;;5012873;28;20395;-74
2021/12/16 11:58:47;;;;;;;;;;;;;;;;;;5020943;28;19998;-74
2021/12/16 12:01:13;;;;;;;;;;;;;;;;;;5023716;28;20407;-74
2021/12/16 12:03:39;;;;;;;;;;;;;;;;;;5025789;28;19913;-74
2021/12/16 12:06:04;;;;;;;;;;;;;;;;;;5017497;28;19999;-75
2021/12/16 12:08:31;;;;;;;;;;;;;;;;;;5016973;28;19945;-74
2021/12/16 12:10:59;;;;;;;;;;;;;;;;;;5021018;28;20342;-75
2021/12/16 12:13:25;;;;;;;;;;;;;;;;;;5010489;28;19913;-74
2021/12/16 12:15:51;;;;;;;;;;;;;;;;;;5020097;28;20335;-74
2021/12/16 12:18:17;;;;;;;;;;;;;;;;;;5004802;28;20412;-74
2021/12/16 12:20:43;;;;;;;;;;;;;;;;;;5024398;28;20160;-74
2021/12/16 12:23:09;;;;;;;;;;;;;;;;;;5024229;28;19963;-75
2021/12/16 12:25:35;;;;;;;;;;;;;;;;;;5017623;28;19924;-75
2021/12/16 12:28:01;;;;;;;;;;;;;;;;;;5020752;28;19959;-75
2021/12/16 12:30:27;;;;;;;;;;;;;;;;;;5013716;28;19920;-75
2021/12/16 12:32:53;;;;;;;;;;;;;;;;;;5011353;28;19913;-76
2021/12/16 12:35:19;;;;;;;;;;;;;;;;;;5017677;28;19964;-74
2021/12/16 12:37:45;;;;;;;;;;;;;;;;;;5013018;28;19935;-75
2021/12/16 12:40:11;;;;;;;;;;;;;;;;;;5020095;28;19913;-74
2021/12/16 12:42:37;;;;;;;;;;;;;;;;;;5019679;28;19952;-74
2021/12/16 12:45:03;;;;;;;;;;;;;;;;;;5023422;28;19945;-75
2021/12/16 12:47:29;;;;;;;;;;;;;;;;;;5017312;28;19952;-74
2021/12/16 12:49:55;;;;;;;;;;;;;;;;;;5023990;28;19920;-74
2021/12/16 12:52:22;;;;;;;;;;;;;;;;;;5015645;28;19914;-75
2021/12/16 12:54:48;;;;;;;;;;;;;;;;;;5018564;28;20374;-75
2021/12/16 12:57:14;;;;;;;;;;;;;;;;;;5019901;28;19963;-74
2021/12/16 12:59:40;;;;;;;;;;;;;;;;;;5019356;28;19920;-74
2021/12/16 13:02:06;;;;;;;;;;;;;;;;;;5016172;28;20009;-74
2021/12/16 13:04:32;;;;;;;;;;;;;;;;;;5017122;28;19976;-75
2021/12/16 13:06:57;;;;;;;;;;;;;;;;;;5022120;28;19960;-74
2021/12/16 13:09:23;;;;;;;;;;;;;;;;;;5018892;28;19949;-74
2021/12/16 13:11:49;;;;;;;;;;;;;;;;;;5016884;28;20342;-74
2021/12/16 13:14:24;;;;;;;;;;;;;;;;;;5006342;28;20341;-75
2021/12/16 13:23:17;;;;;;;;;;;;;;;;;;5023115;28;19916;-75
2021/12/16 13:27:43;;;;;;;;;;;;;;;;;;5020086;28;19952;-75
2021/12/16 13:32:43;;;;;;;;;;;;;;;;;;5015000;28;19914;-75
2021/12/16 13:37:35;;;;;;;;;;;;;;;;;;5016303;28;20126;-75
2021/12/16 13:40:01;;;;;;;;;;;;;;;;;;5013765;28;19960;-76
2021/12/16 13:42:27;;;;;;;;;;;;;;;;;;5010162;28;19952;-74
2021/12/16 13:44:56;;;;;;;;;;;;;;;;;;5016552;28;19920;-75
2021/12/16 13:47:34;;;;;;;;;;;;;;;;;;5016664;28;20127;-75
2021/12/16 14:01:12;;;;;;;;;;;;;;;;;;5015773;28;19967;-75
2021/12/16 14:06:21;;;;;;;;;;;;;;;;;;5011802;28;19917;-75
2021/12/16 14:08:48;;;;;;;;;;;;;;;;;;5019792;28;19913;-76
2021/12/16 14:14:22;;;;;;;;;;;;;;;;;;4992085;28;19964;-75
2021/12/16 14:24:39;;;;;;;;;;;;;;;;;;5020420;28;20303;-75
2021/12/16 14:27:19;;;;;;;;;;;;;;;;;;5009979;28;19921;-75
2021/12/16 14:35:39;;;;;;;;;;;;;;;;;;5021753;28;19924;-75
2021/12/16 14:38:09;;;;;;;;;;;;;;;;;;5005482;28;19920;-76
2021/12/16 14:40:39;;;;;;;;;;;;;;;;;;5018576;28;20364;-75
2021/12/16 14:45:42;;;;;;;;;;;;;;;;;;5002408;28;19948;-75
2021/12/16 14:48:21;;;;;;;;;;;;;;;;;;5015462;28;19925;-76
2021/12/16 14:50:47;;;;;;;;;;;;;;;;;;5022559;28;19913;-75
2021/12/16 14:53:13;;;;;;;;;;;;;;;;;;5022174;28;19988;-74
2021/12/16 14:55:39;;;;;;;;;;;;;;;;;;5015903;28;19953;-75
2021/12/16 14:58:05;;;;;;;;;;;;;;;;;;5010381;28;20273;-75
2021/12/16 15:00:35;;;;;;;;;;;;;;;;;;5021591;28;19953;-75
2021/12/16 15:03:01;;;;;;;;;;;;;;;;;;5013798;28;19924;-75
2021/12/16 15:05:28;;;;;;;;;;;;;;;;;;5012431;28;20031;-75
2021/12/16 15:07:55;;;;;;;;;;;;;;;;;;5019302;28;19921;-74
2021/12/16 15:10:22;;;;;;;;;;;;;;;;;;5023169;28;19921;-75
2021/12/16 15:12:57;;;;;;;;;;;;;;;;;;5020267;28;19914;-75
2021/12/16 15:15:32;;;;;;;;;;;;;;;;;;5014488;28;20004;-74
2021/12/16 15:39:44;;;;;;;;;;;;;;;;;;5010079;28;20008;-74
2021/12/16 15:44:54;;;;;;;;;;;;;;;;;;5012817;28;19924;-74
2021/12/16 15:47:20;;;;;;;;;;;;;;;;;;5009544;28;19964;-74
2021/12/16 15:49:46;;;;;;;;;;;;;;;;;;5010530;28;20363;-74
2021/12/16 15:52:12;;;;;;;;;;;;;;;;;;5012984;28;19913;-74
2021/12/16 15:54:38;;;;;;;;;;;;;;;;;;5010101;28;20012;-74
2021/12/16 15:57:04;;;;;;;;;;;;;;;;;;5017394;28;19961;-74
2021/12/16 15:59:30;;;;;;;;;;;;;;;;;;5008070;28;19964;-75
2021/12/16 16:01:56;;;;;;;;;;;;;;;;;;5010860;28;20348;-74
2021/12/16 16:04:22;;;;;;;;;;;;;;;;;;5008770;28;20344;-74
2021/12/16 16:06:47;;;;;;;;;;;;;;;;;;5010021;28;20388;-75
2021/12/16 16:09:15;;;;;;;;;;;;;;;;;;5014211;28;20367;-74
2021/12/16 16:11:41;;;;;;;;;;;;;;;;;;5002600;28;19921;-74
2021/12/16 16:14:07;;;;;;;;;;;;;;;;;;5010830;28;19920;-74
2021/12/16 16:16:37;;;;;;;;;;;;;;;;;;5016609;28;19957;-75
2021/12/16 16:19:03;;;;;;;;;;;;;;;;;;5007876;28;19917;-74
2021/12/16 16:21:29;;;;;;;;;;;;;;;;;;5016004;28;20283;-74
2021/12/16 16:23:55;;;;;;;;;;;;;;;;;;5011808;28;19920;-75
2021/12/16 16:26:21;;;;;;;;;;;;;;;;;;5010018;28;20391;-74
2021/12/16 16:28:47;;;;;;;;;;;;;;;;;;5010541;28;19913;-74
2021/12/16 16:31:13;;;;;;;;;;;;;;;;;;5007016;28;19968;-74
2021/12/16 16:33:39;;;;;;;;;;;;;;;;;;5011267;28;19959;-74
2021/12/16 16:36:06;;;;;;;;;;;;;;;;;;5012013;28;19914;-74
2021/12/16 16:38:32;;;;;;;;;;;;;;;;;;5006730;28;19914;-74
2021/12/16 16:40:58;;;;;;;;;;;;;;;;;;5009849;28;20337;-74
2021/12/16 16:43:24;;;;;;;;;;;;;;;;;;5006177;28;20368;-74
2021/12/16 16:45:50;;;;;;;;;;;;;;;;;;5010543;28;19949;-74
2021/12/16 16:48:28;;;;;;;;;;;;;;;;;;5008277;28;20426;-74
2021/12/16 16:50:54;;;;;;;;;;;;;;;;;;5007237;28;19920;-74
2021/12/16 16:53:20;;;;;;;;;;;;;;;;;;5016492;28;19914;-74
2021/12/16 16:55:46;;;;;;;;;;;;;;;;;;5011844;28;19960;-74
2021/12/16 16:58:12;;;;;;;;;;;;;;;;;;5010181;28;19959;-74
2021/12/16 17:00:38;;;;;;;;;;;;;;;;;;5011311;28;20376;-74
2021/12/16 17:03:04;;;;;;;;;;;;;;;;;;5010199;28;20340;-74
2021/12/16 17:05:30;;;;;;;;;;;;;;;;;;5019929;28;20347;-74
2021/12/16 17:07:56;;;;;;;;;;;;;;;;;;5007562;28;20390;-74
2021/12/16 17:10:22;;;;;;;;;;;;;;;;;;5018098;28;20367;-74
2021/12/16 17:12:48;;;;;;;;;;;;;;;;;;5006059;28;19952;-74
2021/12/16 17:15:32;;;;;;;;;;;;;;;;;;5015966;28;19964;-74
2021/12/16 17:17:58;;;;;;;;;;;;;;;;;;5006921;28;19914;-74
2021/12/16 17:20:24;;;;;;;;;;;;;;;;;;5009822;28;19956;-74
2021/12/16 17:22:50;;;;;;;;;;;;;;;;;;5011634;28;20144;-74
2021/12/16 17:25:16;;;;;;;;;;;;;;;;;;5007088;28;19922;-74
2021/12/16 17:27:42;;;;;;;;;;;;;;;;;;5002658;28;19921;-74
2021/12/16 17:30:08;;;;;;;;;;;;;;;;;;5008366;28;20309;-74
2021/12/16 17:32:34;;;;;;;;;;;;;;;;;;5006051;28;19922;-74
2021/12/16 17:35:00;;;;;;;;;;;;;;;;;;5009350;28;20401;-74
2021/12/16 17:37:26;;;;;;;;;;;;;;;;;;5007237;28;20465;-74
2021/12/16 17:39:52;;;;;;;;;;;;;;;;;;5008340;28;20414;-74
2021/12/16 17:42:18;;;;;;;;;;;;;;;;;;5009263;28;20387;-74
2021/12/16 17:44:44;;;;;;;;;;;;;;;;;;5012380;28;19934;-74
2021/12/16 17:47:09;;;;;;;;;;;;;;;;;;5013552;28;20047;-74
2021/12/16 17:49:35;;;;;;;;;;;;;;;;;;4999998;28;20063;-73
2021/12/16 17:52:01;;;;;;;;;;;;;;;;;;5010704;28;19913;-74
2021/12/16 17:54:27;;;;;;;;;;;;;;;;;;5016243;28;20629;-75
2021/12/16 17:56:53;;;;;;;;;;;;;;;;;;5009462;28;19921;-73
2021/12/16 17:59:19;;;;;;;;;;;;;;;;;;5003840;28;20406;-73
2021/12/16 18:01:45;;;;;;;;;;;;;;;;;;5016333;28;19956;-73
2021/12/16 18:04:13;;;;;;;;;;;;;;;;;;5009281;28;19914;-73
2021/12/16 18:06:38;;;;;;;;;;;;;;;;;;5009747;28;19940;-73
2021/12/16 18:09:04;;;;;;;;;;;;;;;;;;5006885;28;20399;-73
2021/12/16 18:11:30;;;;;;;;;;;;;;;;;;5018647;28;20502;-73
2021/12/16 18:13:56;;;;;;;;;;;;;;;;;;5014307;28;19949;-73
2021/12/16 18:16:22;;;;;;;;;;;;;;;;;;5010073;28;19948;-72
2021/12/16 18:18:48;;;;;;;;;;;;;;;;;;5006773;28;19964;-73
2021/12/16 18:21:14;;;;;;;;;;;;;;;;;;5006538;28;20695;-73
2021/12/16 18:23:40;;;;;;;;;;;;;;;;;;5019700;28;20352;-73
2021/12/16 18:26:06;;;;;;;;;;;;;;;;;;5011666;28;19976;-73
2021/12/16 18:28:33;;;;;;;;;;;;;;;;;;5014187;28;20003;-74
2021/12/16 18:30:59;;;;;;;;;;;;;;;;;;5012720;28;20379;-73
2021/12/16 18:33:25;;;;;;;;;;;;;;;;;;5009261;28;20012;-73
2021/12/16 18:35:51;;;;;;;;;;;;;;;;;;5031648;28;20544;-74
2021/12/16 18:38:17;;;;;;;;;;;;;;;;;;5007263;28;20392;-73
2021/12/16 18:40:43;;;;;;;;;;;;;;;;;;5010645;28;20871;-74
2021/12/16 18:43:09;;;;;;;;;;;;;;;;;;5013065;28;20368;-73
2021/12/16 18:45:36;;;;;;;;;;;;;;;;;;5018112;28;20008;-73
2021/12/16 18:48:20;;;;;;;;;;;;;;;;;;5009085;28;20383;-74
2021/12/16 18:55:41;;;;;;;;;;;;;;;;;;5011942;28;19917;-74
2021/12/16 18:58:07;;;;;;;;;;;;;;;;;;5010370;28;19937;-73
2021/12/16 19:00:33;;;;;;;;;;;;;;;;;;5010099;28;20391;-73
2021/12/16 19:02:59;;;;;;;;;;;;;;;;;;5009786;28;19917;-73
2021/12/16 19:05:25;;;;;;;;;;;;;;;;;;5010891;28;19913;-73
2021/12/16 19:07:51;;;;;;;;;;;;;;;;;;5007972;28;19999;-73
2021/12/16 19:10:17;;;;;;;;;;;;;;;;;;5017718;28;19948;-73
2021/12/16 19:12:44;;;;;;;;;;;;;;;;;;5009816;28;19914;-73
2021/12/16 19:15:10;;;;;;;;;;;;;;;;;;5020966;28;19951;-72
2021/12/16 19:17:36;;;;;;;;;;;;;;;;;;5019604;28;20253;-72
2021/12/16 19:20:02;;;;;;;;;;;;;;;;;;5019568;28;19917;-73
2021/12/16 19:22:28;;;;;;;;;;;;;;;;;;5009532;28;19963;-72
2021/12/16 19:24:54;;;;;;;;;;;;;;;;;;5011531;28;19940;-73
2021/12/16 19:27:20;;;;;;;;;;;;;;;;;;5009489;28;19979;-72
2021/12/16 19:29:46;;;;;;;;;;;;;;;;;;5005708;28;20380;-73
2021/12/16 19:32:12;;;;;;;;;;;;;;;;;;5015631;28;19918;-73
2021/12/16 19:34:38;;;;;;;;;;;;;;;;;;5010923;28;19999;-73
2021/12/16 19:37:04;;;;;;;;;;;;;;;;;;5011653;28;19917;-73
2021/12/16 19:41:58;;;;;;;;;;;;;;;;;;5048925;28;19929;-76
2021/12/16 19:44:25;;;;;;;;;;;;;;;;;;5046639;28;19971;-76
2021/12/16 19:46:51;;;;;;;;;;;;;;;;;;5049727;28;19964;-76
2021/12/16 19:49:17;;;;;;;;;;;;;;;;;;5043780;28;19940;-76
2021/12/16 19:51:43;;;;;;;;;;;;;;;;;;5047034;28;19975;-76
2021/12/16 19:54:08;;;;;;;;;;;;;;;;;;5047370;28;19921;-76
2021/12/16 19:56:34;;;;;;;;;;;;;;;;;;5049240;28;19958;-77
2021/12/16 19:59:00;;;;;;;;;;;;;;;;;;5047544;28;20460;-76
2021/12/16 20:01:26;;;;;;;;;;;;;;;;;;5049228;28;20018;-76
2021/12/16 20:03:52;;;;;;;;;;;;;;;;;;5049034;28;19955;-76
2021/12/16 20:06:19;;;;;;;;;;;;;;;;;;5051376;28;19948;-76
2021/12/16 20:08:47;;;;;;;;;;;;;;;;;;5047574;28;19924;-76
2021/12/16 20:11:13;;;;;;;;;;;;;;;;;;5052904;28;20330;-76
2021/12/16 20:13:41;;;;;;;;;;;;;;;;;;5048425;28;19940;-76
2021/12/16 20:16:07;;;;;;;;;;;;;;;;;;5051034;28;19924;-76
2021/12/16 20:18:33;;;;;;;;;;;;;;;;;;5044839;28;19955;-76
2021/12/16 20:20:59;;;;;;;;;;;;;;;;;;5046928;28;19943;-76
2021/12/16 20:23:25;;;;;;;;;;;;;;;;;;5047932;28;20357;-77
2021/12/16 20:25:51;;;;;;;;;;;;;;;;;;5050468;28;20351;-77
2021/12/16 20:28:17;;;;;;;;;;;;;;;;;;5053069;28;19923;-76
2021/12/16 20:30:43;;;;;;;;;;;;;;;;;;5053178;28;19916;-76
2021/12/16 20:33:09;;;;;;;;;;;;;;;;;;5046878;28;19917;-77
2021/12/16 20:35:35;;;;;;;;;;;;;;;;;;5052789;28;19913;-77
2021/12/16 20:38:01;;;;;;;;;;;;;;;;;;5043897;28;19975;-76
2021/12/16 20:40:27;;;;;;;;;;;;;;;;;;5049153;28;20002;-75
2021/12/16 20:42:53;;;;;;;;;;;;;;;;;;5055336;28;19974;-76
2021/12/16 20:45:23;;;;;;;;;;;;;;;;;;5057272;28;19952;-75
2021/12/16 20:47:49;;;;;;;;;;;;;;;;;;5043927;28;19916;-76